Time;durP1;ratioP1;P1;durP2;ratioP2;P2;SDS_P1;SDS_P2;PMS_P1;PMS_P2;Temp;Humidity;BMP_temperature;BMP_pressure;BME280_temperature;BME280_humidity;BME280_pressure;Samples;Min_cycle;Max_cycle;Signal;HPM_P1;HPM_P2
2021/08/19 00:02:17;;;;;;;4.63;2.50;;;;;;;18.75;74.03;101239.56;5033526;28;20053;-69
2021/08/19 00:04:45;;;;;;;4.82;2.40;;;;;;;19.03;73.01;101239.53;5033549;28;20064;-61
2021/08/19 00:07:12;;;;;;;5.20;2.60;;;;;;;19.01;73.04;101233.50;5032134;28;20057;-62
2021/08/19 00:09:39;;;;;;;4.80;2.47;;;;;;;19.00;72.54;101229.88;5015932;28;20049;-62
2021/08/19 00:12:08;;;;;;;6.80;2.67;;;;;;;19.05;72.93;101231.63;5033595;28;20049;-63
2021/08/19 00:14:36;;;;;;;5.72;2.60;;;;;;;18.80;73.56;101232.91;5051918;28;20536;-63
2021/08/19 00:17:05;;;;;;;4.70;2.60;;;;;;;18.98;73.14;101225.84;5051740;28;20463;-63
2021/08/19 00:19:33;;;;;;;4.90;2.50;;;;;;;18.84;73.47;101229.06;5053390;28;20041;-70
2021/08/19 00:22:01;;;;;;;5.57;2.78;;;;;;;18.71;74.24;101232.25;5053450;28;20056;-70
2021/08/19 00:24:29;;;;;;;3.88;2.58;;;;;;;18.76;74.15;101230.00;5053409;28;20163;-70
2021/08/19 00:26:56;;;;;;;4.88;2.42;;;;;;;19.09;72.67;101222.16;5051640;28;20056;-62
2021/08/19 00:29:23;;;;;;;5.47;2.10;;;;;;;19.05;72.24;101215.69;5053182;28;20044;-62
2021/08/19 00:31:51;;;;;;;4.18;2.30;;;;;;;19.01;72.25;101208.38;5053379;28;20060;-64
2021/08/19 00:34:18;;;;;;;4.40;2.75;;;;;;;18.69;73.47;101206.69;5053158;28;20045;-62
2021/08/19 00:36:45;;;;;;;4.80;2.60;;;;;;;18.43;74.79;101206.34;5053034;28;20051;-68
2021/08/19 00:39:13;;;;;;;4.32;2.45;;;;;;;18.39;75.19;101208.16;5053161;28;20041;-70
2021/08/19 00:41:40;;;;;;;4.00;2.20;;;;;;;18.68;74.34;101207.84;5053357;28;20053;-70
2021/08/19 00:44:08;;;;;;;5.90;2.40;;;;;;;18.42;74.17;101208.31;5053392;28;20041;-70
2021/08/19 00:46:38;;;;;;;4.22;2.28;;;;;;;18.47;74.67;101212.81;5051498;28;20056;-70
2021/08/19 00:49:10;;;;;;;4.68;2.90;;;;;;;18.55;73.72;101206.28;5053334;28;20400;-70
2021/08/19 00:51:42;;;;;;;7.60;2.88;;;;;;;18.69;73.59;101206.69;5055975;28;20116;-69
2021/08/19 00:54:27;;;;;;;4.25;2.70;;;;;;;18.83;73.34;101201.47;5023240;28;20057;-71
2021/08/19 00:56:58;;;;;;;6.28;2.55;;;;;;;18.90;73.02;101208.06;5056439;28;20049;-62
2021/08/19 00:59:27;;;;;;;3.85;2.28;;;;;;;18.81;73.36;101196.25;5056860;28;20048;-63
2021/08/19 01:01:55;;;;;;;4.07;2.22;;;;;;;18.97;72.69;101204.66;5054821;28;20057;-63
2021/08/19 01:04:23;;;;;;;7.03;2.47;;;;;;;18.96;72.59;101212.25;5054863;28;20058;-62
2021/08/19 01:06:53;;;;;;;5.95;2.65;;;;;;;19.01;72.67;101205.56;5056308;28;20048;-62
2021/08/19 01:09:20;;;;;;;5.57;2.88;;;;;;;18.85;72.79;101201.94;5056575;28;20048;-62
2021/08/19 01:11:47;;;;;;;5.45;2.60;;;;;;;18.60;73.03;101206.03;5056566;28;20060;-62
2021/08/19 01:14:19;;;;;;;4.00;2.38;;;;;;;18.57;73.47;101206.72;5039209;28;20064;-61
2021/08/19 01:16:47;;;;;;;5.53;2.65;;;;;;;18.76;72.28;101195.69;5036192;28;20041;-69
2021/08/19 01:19:20;;;;;;;6.80;2.50;;;;;;;18.67;72.73;101195.06;5036418;28;20045;-69
2021/08/19 01:21:52;;;;;;;5.10;2.60;;;;;;;18.85;71.67;101196.34;5039349;28;20054;-69
2021/08/19 01:24:20;;;;;;;4.82;2.55;;;;;;;19.24;69.52;101189.84;5035162;28;20041;-69
2021/08/19 01:26:48;;;;;;;5.10;2.65;;;;;;;18.81;70.98;101192.66;5035051;28;20060;-69
2021/08/19 01:29:17;;;;;;;3.22;2.20;;;;;;;18.69;72.09;101192.75;5035004;28;20045;-69
2021/08/19 01:32:03;;;;;;;4.55;2.58;;;;;;;18.79;71.84;101184.63;5035107;28;20057;-69
2021/08/19 01:34:30;;;;;;;6.50;2.92;;;;;;;18.52;71.96;101196.63;5036676;28;20045;-69
2021/08/19 01:36:58;;;;;;;5.85;3.03;;;;;;;18.59;71.73;101173.69;5034686;28;20084;-70
2021/08/19 01:39:26;;;;;;;5.78;2.83;;;;;;;18.54;71.97;101172.00;5034573;28;20448;-69
2021/08/19 01:41:53;;;;;;;6.57;2.92;;;;;;;18.45;72.45;101182.47;5036663;28;20056;-69
2021/08/19 01:44:21;;;;;;;8.13;2.63;;;;;;;18.54;71.86;101171.16;5036048;28;20060;-63
2021/08/19 01:46:56;;;;;;;3.92;2.55;;;;;;;18.66;71.80;101176.69;5018175;28;20045;-72
2021/08/19 01:49:35;;;;;;;4.45;2.60;;;;;;;18.52;71.89;101168.72;5037394;28;20531;-70
2021/08/19 01:52:03;;;;;;;4.05;2.33;;;;;;;18.76;71.33;101174.19;5039951;28;20053;-69
2021/08/19 01:54:31;;;;;;;4.15;2.40;;;;;;;18.76;71.30;101173.38;5036142;28;20053;-62
2021/08/19 01:56:58;;;;;;;4.15;2.42;;;;;;;18.73;71.10;101174.91;5035556;28;20053;-62
2021/08/19 01:59:27;;;;;;;4.45;2.47;;;;;;;18.71;71.51;101177.25;5035919;28;20064;-70
2021/08/19 02:01:55;;;;;;;4.97;2.78;;;;;;;18.60;71.20;101172.53;5037546;28;20045;-70
2021/08/19 02:04:25;;;;;;;4.45;2.40;;;;;;;18.48;71.72;101173.41;5036818;28;20413;-62
2021/08/19 02:06:52;;;;;;;5.25;2.78;;;;;;;18.66;71.20;101171.09;5035727;28;20053;-63
2021/08/19 02:09:19;;;;;;;6.05;2.35;;;;;;;18.76;71.06;101170.56;5038168;28;20060;-62
2021/08/19 02:11:46;;;;;;;4.40;2.40;;;;;;;18.95;69.98;101171.50;5035728;28;20539;-62
2021/08/19 02:14:14;;;;;;;4.90;2.65;;;;;;;18.96;69.90;101175.13;5052168;28;20408;-62
2021/08/19 02:16:41;;;;;;;4.72;2.60;;;;;;;18.74;70.09;101167.34;5055482;28;20091;-69
2021/08/19 02:19:08;;;;;;;7.10;2.72;;;;;;;18.69;70.64;101167.63;5056152;28;20680;-62
2021/08/19 02:21:35;;;;;;;5.55;2.50;;;;;;;18.82;70.48;101169.16;5056480;28;20041;-70
2021/08/19 02:24:03;;;;;;;5.82;2.50;;;;;;;18.89;69.70;101172.16;5055955;28;20063;-69
2021/08/19 02:26:30;;;;;;;4.32;2.50;;;;;;;19.01;69.07;101172.06;5055525;28;20060;-62
2021/08/19 02:28:57;;;;;;;4.97;2.20;;;;;;;18.57;70.56;101168.47;5037171;28;20440;-68
2021/08/19 02:31:25;;;;;;;5.13;2.50;;;;;;;18.45;71.09;101159.34;5053557;28;20053;-62
2021/08/19 02:33:52;;;;;;;4.47;2.55;;;;;;;18.38;71.55;101171.09;5055493;28;20044;-69
2021/08/19 02:36:19;;;;;;;3.85;2.20;;;;;;;18.53;71.01;101155.59;5055552;28;20052;-70
2021/08/19 02:38:46;;;;;;;5.00;2.25;;;;;;;18.50;70.68;101150.72;5054134;28;20055;-68
2021/08/19 02:41:14;;;;;;;4.47;2.42;;;;;;;18.81;70.21;101156.38;5054931;28;20049;-70
2021/08/19 02:43:43;;;;;;;4.78;2.63;;;;;;;18.68;69.80;101152.84;5054892;28;20049;-69
2021/08/19 02:46:11;;;;;;;3.58;2.22;;;;;;;18.88;69.69;101149.00;5053259;28;20495;-62
2021/08/19 02:48:39;;;;;;;5.25;2.40;;;;;;;18.89;69.15;101142.25;5054581;28;20059;-61
2021/08/19 02:51:06;;;;;;;3.92;2.20;;;;;;;18.72;69.52;101147.38;5054460;28;20048;-69
2021/08/19 02:53:33;;;;;;;4.43;2.38;;;;;;;18.81;69.52;101148.81;5052935;28;20052;-63
2021/08/19 02:56:02;;;;;;;6.20;2.58;;;;;;;18.86;68.81;101150.53;5054505;28;20071;-70
2021/08/19 02:58:29;;;;;;;5.32;2.45;;;;;;;18.93;68.30;101143.13;5054610;28;20056;-63
2021/08/19 03:00:56;;;;;;;5.32;2.50;;;;;;;18.84;68.77;101139.72;5054472;28;20041;-69
2021/08/19 03:03:24;;;;;;;7.22;2.50;;;;;;;18.81;69.04;101146.00;5054642;28;20060;-69
2021/08/19 03:05:51;;;;;;;5.85;2.58;;;;;;;18.70;68.81;101139.34;5052822;28;20049;-62
2021/08/19 03:08:18;;;;;;;6.63;2.72;;;;;;;18.72;69.11;101142.59;5052552;28;20057;-69
2021/08/19 03:10:46;;;;;;;4.70;2.72;;;;;;;18.75;69.08;101135.47;5054221;28;20049;-69
2021/08/19 03:13:13;;;;;;;4.30;2.30;;;;;;;18.82;69.16;101130.91;5045344;28;20381;-63
2021/08/19 03:15:40;;;;;;;4.18;2.28;;;;;;;18.93;68.96;101131.19;5032738;28;20125;-62
2021/08/19 03:18:07;;;;;;;4.40;2.42;;;;;;;18.89;69.02;101135.84;5032829;28;20064;-63
2021/08/19 03:20:35;;;;;;;7.57;2.55;;;;;;;18.75;69.30;101132.69;5034560;28;20044;-62
2021/08/19 03:23:02;;;;;;;5.78;2.90;;;;;;;18.59;69.75;101134.63;5034662;28;20056;-69
2021/08/19 03:25:30;;;;;;;5.32;2.53;;;;;;;18.61;70.60;101135.91;5034855;28;20056;-69
2021/08/19 03:28:02;;;;;;;6.28;2.60;;;;;;;18.76;69.48;101137.91;5033891;28;20507;-65
2021/08/19 03:30:30;;;;;;;6.15;2.55;;;;;;;18.70;69.75;101125.41;5032674;28;20539;-62
2021/08/19 03:32:57;;;;;;;4.75;2.55;;;;;;;18.72;69.20;101131.44;5033969;28;20053;-61
2021/08/19 03:35:25;;;;;;;4.53;2.85;;;;;;;18.56;69.98;101125.00;5033855;28;20057;-62
2021/08/19 03:37:52;;;;;;;6.30;2.95;;;;;;;18.61;70.13;101127.53;5032525;28;20508;-70
2021/08/19 03:40:19;;;;;;;5.22;3.00;;;;;;;18.53;70.00;101128.50;5034061;28;20049;-62
2021/08/19 03:42:46;;;;;;;4.57;2.90;;;;;;;18.45;70.50;101125.88;5034426;28;20054;-62
2021/08/19 03:45:19;;;;;;;9.55;3.20;;;;;;;18.55;70.38;101123.38;5033360;28;20543;-62
2021/08/19 03:47:46;;;;;;;8.23;2.75;;;;;;;18.54;70.29;101123.75;5032255;28;20056;-62
2021/08/19 03:50:13;;;;;;;5.30;2.83;;;;;;;18.61;70.34;101113.59;5031875;28;20049;-62
2021/08/19 03:52:41;;;;;;;4.75;2.90;;;;;;;18.58;70.26;101119.06;5032479;28;20045;-62
2021/08/19 03:55:08;;;;;;;7.07;3.10;;;;;;;18.65;69.71;101128.47;5033496;28;20073;-62
2021/08/19 03:57:36;;;;;;;5.05;2.67;;;;;;;18.52;70.70;101126.06;5033278;28;20057;-63
2021/08/19 04:00:04;;;;;;;4.57;2.50;;;;;;;18.64;69.97;101123.22;5032284;28;20061;-69
2021/08/19 04:02:38;;;;;;;4.32;2.58;;;;;;;18.67;69.76;101122.50;5033680;28;20053;-69
2021/08/19 04:05:06;;;;;;;6.05;3.17;;;;;;;18.77;69.52;101119.19;5015612;28;20443;-70
2021/08/19 04:07:37;;;;;;;4.55;2.60;;;;;;;18.67;69.55;101133.69;5033381;28;20060;-63
2021/08/19 04:10:06;;;;;;;7.80;3.55;;;;;;;18.69;69.67;101131.34;5016112;28;20041;-63
2021/08/19 04:12:37;;;;;;;6.18;3.25;;;;;;;18.80;69.37;101127.66;5036334;28;20057;-69
2021/08/19 04:15:08;;;;;;;6.43;3.13;;;;;;;18.59;69.55;101123.47;5053325;28;20057;-69
2021/08/19 04:17:36;;;;;;;5.70;3.13;;;;;;;18.65;69.87;101128.47;5053232;28;20060;-62
2021/08/19 04:20:05;;;;;;;5.85;3.20;;;;;;;18.65;69.77;101128.47;5053669;28;20053;-63
2021/08/19 04:22:32;;;;;;;5.60;2.97;;;;;;;18.46;70.17;101122.72;5053413;28;20048;-62
2021/08/19 04:25:00;;;;;;;4.78;2.70;;;;;;;18.57;70.29;101125.81;5056072;28;20052;-69
2021/08/19 04:27:27;;;;;;;4.82;2.95;;;;;;;18.56;69.96;101130.59;5055939;28;20056;-62
2021/08/19 04:29:54;;;;;;;6.15;3.10;;;;;;;18.60;70.13;101125.13;5057016;28;20057;-69
2021/08/19 04:32:21;;;;;;;7.43;3.28;;;;;;;18.65;70.04;101127.63;5057202;28;20041;-69
2021/08/19 04:34:49;;;;;;;5.47;3.03;;;;;;;18.59;69.98;101120.69;5039600;28;20076;-70
2021/08/19 04:37:16;;;;;;;5.70;2.85;;;;;;;18.65;69.79;101122.88;5057585;28;20048;-70
2021/08/19 04:39:43;;;;;;;6.10;3.25;;;;;;;18.72;69.87;101119.47;5057654;28;20061;-63
2021/08/19 04:42:10;;;;;;;5.13;3.00;;;;;;;18.72;69.76;101119.47;5057082;28;20048;-62
2021/08/19 04:44:38;;;;;;;7.07;3.22;;;;;;;18.60;69.68;101125.13;5055741;28;20048;-62
2021/08/19 04:47:05;;;;;;;6.20;3.40;;;;;;;18.56;70.41;101116.66;5056626;28;20049;-62
2021/08/19 04:49:34;;;;;;;5.50;2.95;;;;;;;18.73;69.76;101123.84;5056895;28;20057;-62
2021/08/19 04:52:01;;;;;;;5.13;3.08;;;;;;;18.87;69.65;101132.59;5056956;28;20048;-62
2021/08/19 04:54:28;;;;;;;7.07;3.13;;;;;;;18.93;69.31;101129.19;5056914;28;20504;-62
2021/08/19 04:56:55;;;;;;;6.82;3.10;;;;;;;18.77;69.63;101135.94;5055045;28;20060;-63
2021/08/19 04:59:23;;;;;;;5.18;3.00;;;;;;;18.69;70.22;101134.94;5056837;28;20475;-62
2021/08/19 05:01:50;;;;;;;7.13;3.13;;;;;;;18.81;69.75;101139.63;5056533;28;20052;-62
2021/08/19 05:04:22;;;;;;;5.38;3.15;;;;;;;19.02;69.69;101137.41;5055420;28;20056;-70
2021/08/19 05:06:49;;;;;;;5.78;3.05;;;;;;;18.79;69.86;101150.34;5056605;28;20075;-70
2021/08/19 05:09:16;;;;;;;6.45;3.40;;;;;;;18.68;70.75;101147.28;5056589;28;20056;-62
2021/08/19 05:11:43;;;;;;;5.60;3.10;;;;;;;18.84;70.27;101142.53;5056512;28;20056;-62
2021/08/19 05:14:11;;;;;;;6.65;3.10;;;;;;;18.80;69.88;101143.59;5040308;28;20053;-63
2021/08/19 05:16:38;;;;;;;6.40;3.17;;;;;;;18.82;69.79;101139.28;5036329;28;20096;-69
2021/08/19 05:19:05;;;;;;;6.57;3.55;;;;;;;18.90;69.63;101146.66;5036679;28;20060;-62
2021/08/19 05:21:32;;;;;;;5.88;3.13;;;;;;;18.88;69.61;101148.19;5034981;28;20061;-69
2021/08/19 05:24:00;;;;;;;6.97;3.10;;;;;;;18.89;69.48;101152.59;5035195;28;20056;-70
2021/08/19 05:26:27;;;;;;;5.32;3.20;;;;;;;18.87;69.37;101143.78;5036415;28;20045;-70
2021/08/19 05:28:54;;;;;;;5.85;3.10;;;;;;;18.77;69.94;101141.50;5036100;28;20052;-69
2021/08/19 05:31:22;;;;;;;5.57;3.30;;;;;;;18.73;70.12;101148.97;5035970;28;20049;-69
2021/08/19 05:33:49;;;;;;;7.70;3.70;;;;;;;18.59;70.49;101141.03;5036172;28;20057;-70
2021/08/19 05:36:16;;;;;;;4.97;3.28;;;;;;;18.79;70.09;101151.13;5035733;28;20064;-70
2021/08/19 05:38:44;;;;;;;8.32;3.28;;;;;;;18.76;70.27;101153.84;5035982;28;20404;-70
2021/08/19 05:41:11;;;;;;;8.40;3.67;;;;;;;18.67;70.03;101148.41;5036048;28;20057;-70
2021/08/19 05:43:38;;;;;;;5.53;3.60;;;;;;;18.52;70.53;101151.19;5035909;28;20516;-70
2021/08/19 05:46:07;;;;;;;5.68;3.70;;;;;;;18.58;71.07;101153.38;5035697;28;20145;-69
2021/08/19 05:48:34;;;;;;;8.75;4.70;;;;;;;18.68;70.05;101155.63;5035637;28;20060;-69
2021/08/19 05:51:01;;;;;;;7.72;4.65;;;;;;;18.55;70.30;101159.66;5034774;28;20062;-70
2021/08/19 05:53:29;;;;;;;8.57;4.53;;;;;;;18.49;70.47;101158.28;5035944;28;20053;-69
2021/08/19 05:55:56;;;;;;;7.35;4.25;;;;;;;18.49;70.56;101151.91;5035971;28;20064;-69
2021/08/19 05:58:23;;;;;;;7.95;3.97;;;;;;;18.46;71.17;101156.19;5035631;28;20053;-69
2021/08/19 06:00:50;;;;;;;6.97;3.35;;;;;;;18.53;70.66;101152.81;5034271;28;20049;-70
2021/08/19 06:03:22;;;;;;;5.18;3.40;;;;;;;18.55;70.65;101150.50;5034150;28;20516;-69
2021/08/19 06:05:50;;;;;;;8.80;3.95;;;;;;;18.51;70.62;101155.16;5035271;28;20057;-69
2021/08/19 06:08:17;;;;;;;11.02;4.47;;;;;;;18.49;70.50;101157.47;5035653;28;20062;-69
2021/08/19 06:10:45;;;;;;;7.80;4.00;;;;;;;18.56;70.47;101152.91;5035265;28;20412;-62
2021/08/19 06:13:12;;;;;;;8.70;4.45;;;;;;;18.53;70.66;101161.19;5041840;28;20041;-70
2021/08/19 06:15:40;;;;;;;6.93;3.92;;;;;;;18.53;70.64;101152.81;5054987;28;20520;-62
2021/08/19 06:18:07;;;;;;;9.85;4.63;;;;;;;18.40;71.06;101152.06;5054937;28;20057;-62
2021/08/19 06:20:34;;;;;;;19.27;9.32;;;;;;;18.63;70.31;101157.88;5053753;28;20052;-69
2021/08/19 06:23:02;;;;;;;9.30;3.65;;;;;;;18.43;70.92;101153.34;5055060;28;20692;-69
2021/08/19 06:25:32;;;;;;;16.15;6.95;;;;;;;18.63;70.16;101155.91;5055122;28;20059;-69
2021/08/19 06:28:00;;;;;;;9.48;4.90;;;;;;;18.80;69.77;101144.41;5036034;28;20362;-70
2021/08/19 06:30:27;;;;;;;13.88;5.97;;;;;;;19.03;68.68;101152.97;5054417;28;20051;-70
2021/08/19 06:32:54;;;;;;;7.63;5.00;;;;;;;18.74;69.61;101145.81;5054744;28;20045;-70
2021/08/19 06:35:22;;;;;;;14.15;4.28;;;;;;;18.94;69.10;101155.94;5054721;28;20045;-70
2021/08/19 06:37:49;;;;;;;7.78;4.07;;;;;;;18.80;69.25;101154.75;5054706;28;20049;-70
2021/08/19 06:40:16;;;;;;;8.20;4.20;;;;;;;18.66;69.86;101152.38;5053427;28;20059;-69
2021/08/19 06:42:44;;;;;;;9.98;4.50;;;;;;;18.62;70.01;101153.47;5054424;28;20052;-69
2021/08/19 06:45:12;;;;;;;9.48;4.20;;;;;;;18.68;70.32;101147.28;5052963;28;20059;-70
2021/08/19 06:47:40;;;;;;;8.93;4.35;;;;;;;18.81;69.83;101157.19;5053278;28;20060;-69
2021/08/19 06:50:08;;;;;;;7.55;4.57;;;;;;;19.07;69.12;101140.72;5054294;28;20056;-70
2021/08/19 06:52:43;;;;;;;7.63;4.00;;;;;;;18.85;69.60;101155.31;5053058;28;20072;-70
2021/08/19 06:55:11;;;;;;;9.10;4.47;;;;;;;18.85;68.96;101148.91;5054416;28;20071;-70
2021/08/19 06:57:39;;;;;;;9.55;4.57;;;;;;;18.91;68.82;101153.06;5054354;28;20057;-69
2021/08/19 07:00:07;;;;;;;12.02;4.28;;;;;;;18.67;69.48;101148.41;5052893;28;20063;-69
2021/08/19 07:02:35;;;;;;;7.00;4.30;;;;;;;18.88;69.50;101149.00;5054459;28;20049;-63
2021/08/19 07:05:05;;;;;;;8.05;4.50;;;;;;;18.92;69.10;101157.47;5052549;28;20037;-71
2021/08/19 07:07:33;;;;;;;12.13;4.70;;;;;;;18.80;69.31;101160.34;5054174;28;20206;-70
2021/08/19 07:10:03;;;;;;;10.77;4.40;;;;;;;18.94;69.22;101147.56;5055987;28;20296;-70
2021/08/19 07:12:30;;;;;;;9.00;4.30;;;;;;;19.03;68.62;101152.97;5051425;28;20052;-70
2021/08/19 07:14:57;;;;;;;8.77;4.80;;;;;;;18.96;68.42;101148.03;5034316;28;20053;-69
2021/08/19 07:17:25;;;;;;;9.88;4.43;;;;;;;18.87;68.76;101147.38;5034337;28;20048;-71
2021/08/19 07:19:52;;;;;;;8.20;4.68;;;;;;;18.88;69.09;101146.19;5034387;28;20057;-70
2021/08/19 07:22:19;;;;;;;8.60;4.15;;;;;;;18.86;68.85;101156.13;5033012;28;20520;-71
2021/08/19 07:24:47;;;;;;;9.30;4.57;;;;;;;18.98;69.12;101150.47;5016639;28;20083;-70
2021/08/19 07:27:14;;;;;;;12.65;5.28;;;;;;;18.89;69.25;101147.84;5016390;28;20049;-70
2021/08/19 07:29:41;;;;;;;17.73;6.30;;;;;;;18.75;69.40;101136.28;5033680;28;20045;-69
2021/08/19 07:32:09;;;;;;;8.32;4.57;;;;;;;18.85;69.34;101148.91;5033833;28;20049;-69
2021/08/19 07:34:36;;;;;;;7.63;4.80;;;;;;;19.02;68.70;101143.78;5033944;28;20087;-71
2021/08/19 07:37:04;;;;;;;9.02;4.47;;;;;;;18.93;69.08;101150.72;5033989;28;20103;-70
2021/08/19 07:39:31;;;;;;;11.32;4.65;;;;;;;18.88;68.99;101151.78;5033618;28;20050;-70
2021/08/19 07:41:58;;;;;;;12.15;4.50;;;;;;;19.05;68.71;101142.25;5033697;28;20053;-63
2021/08/19 07:44:25;;;;;;;10.55;4.43;;;;;;;19.17;68.53;101141.34;5033856;28;20052;-62
2021/08/19 07:46:52;;;;;;;12.15;4.90;;;;;;;19.40;68.07;101145.97;5033585;28;20053;-63
2021/08/19 07:49:21;;;;;;;14.57;5.03;;;;;;;19.15;67.67;101140.91;5015713;28;20226;-63
2021/08/19 07:51:48;;;;;;;10.73;4.93;;;;;;;19.43;67.02;101141.63;5033739;28;20049;-62
2021/08/19 07:54:17;;;;;;;8.13;5.10;;;;;;;19.39;66.41;101144.34;5016001;28;20050;-62
2021/08/19 07:56:45;;;;;;;12.02;5.20;;;;;;;19.11;67.57;101128.84;5033505;28;20054;-62
2021/08/19 07:59:12;;;;;;;10.50;4.40;;;;;;;19.38;67.18;101139.13;5031444;28;20061;-62
2021/08/19 08:01:39;;;;;;;11.05;4.82;;;;;;;19.59;66.52;101142.41;5032075;28;20060;-62
2021/08/19 08:04:08;;;;;;;12.55;4.88;;;;;;;19.53;66.19;101141.88;5032135;28;20064;-62
2021/08/19 08:06:37;;;;;;;9.60;5.30;;;;;;;19.56;66.43;101146.75;5033591;28;20054;-63
2021/08/19 08:09:05;;;;;;;8.73;4.40;;;;;;;19.27;66.34;101152.78;5033073;28;20060;-63
2021/08/19 08:11:32;;;;;;;9.43;4.80;;;;;;;19.25;66.80;101145.97;5033456;28;20064;-63
2021/08/19 08:14:02;;;;;;;8.18;4.75;;;;;;;19.54;66.29;101148.28;5048031;28;20049;-63
2021/08/19 08:16:29;;;;;;;10.15;5.22;;;;;;;19.69;65.41;101158.63;5053142;28;20056;-63
2021/08/19 08:18:56;;;;;;;9.07;4.95;;;;;;;19.64;65.54;101153.31;5051375;28;20075;-62
2021/08/19 08:21:24;;;;;;;7.68;4.95;;;;;;;19.55;65.38;101156.31;5053137;28;20045;-63
2021/08/19 08:23:53;;;;;;;9.48;5.03;;;;;;;19.53;65.56;101155.84;5053351;28;20051;-63
2021/08/19 08:26:21;;;;;;;10.90;5.03;;;;;;;19.69;65.13;101162.25;5051564;28;20057;-63
2021/08/19 08:28:50;;;;;;;10.40;5.80;;;;;;;19.75;64.98;101157.97;5053047;28;20053;-63
2021/08/19 08:31:17;;;;;;;10.75;4.82;;;;;;;19.61;64.12;101154.88;5051640;28;20053;-63
2021/08/19 08:33:45;;;;;;;8.82;4.88;;;;;;;19.42;64.88;101154.00;5053305;28;20052;-63
2021/08/19 08:36:13;;;;;;;9.13;4.70;;;;;;;19.57;65.22;101159.56;5052874;28;20053;-62
2021/08/19 08:38:40;;;;;;;10.35;5.22;;;;;;;19.48;64.81;101161.72;5053008;28;20049;-62
2021/08/19 08:41:07;;;;;;;13.30;5.40;;;;;;;19.50;64.81;101164.16;5051498;28;20053;-62
2021/08/19 08:43:36;;;;;;;11.70;5.55;;;;;;;19.31;66.08;101164.09;5034718;28;20053;-63
2021/08/19 08:46:06;;;;;;;11.05;5.90;;;;;;;19.37;66.05;101160.66;5051499;28;20057;-63
2021/08/19 08:48:35;;;;;;;9.30;6.05;;;;;;;19.31;66.22;101164.91;5052685;28;20052;-63
2021/08/19 08:51:02;;;;;;;8.02;4.90;;;;;;;18.93;66.70;101173.06;5051393;28;20033;-70
2021/08/19 08:53:29;;;;;;;9.65;5.22;;;;;;;19.07;66.64;101176.22;5052693;28;20052;-69
2021/08/19 08:56:17;;;;;;;11.32;5.40;;;;;;;18.83;67.63;101171.59;5051639;28;20060;-69
2021/08/19 08:58:45;;;;;;;11.13;5.10;;;;;;;19.13;66.95;101177.56;5052755;28;20045;-70
2021/08/19 09:01:12;;;;;;;8.75;5.00;;;;;;;18.92;67.09;101177.81;5052346;28;20049;-70
2021/08/19 09:03:40;;;;;;;9.10;4.45;;;;;;;19.03;66.50;101175.31;5052838;28;20048;-69
2021/08/19 09:06:08;;;;;;;8.95;4.82;;;;;;;19.09;66.38;101179.44;5051455;28;20048;-70
2021/08/19 09:08:38;;;;;;;7.53;4.57;;;;;;;19.03;66.04;101186.47;5051353;28;20053;-70
2021/08/19 09:11:05;;;;;;;9.95;4.43;;;;;;;18.96;66.71;101181.53;5052125;28;20049;-70
2021/08/19 09:13:33;;;;;;;12.10;4.47;;;;;;;19.13;66.58;101182.34;5043860;28;20540;-70
2021/08/19 09:16:17;;;;;;;7.55;4.20;;;;;;;19.28;65.49;101179.56;5036347;28;20053;-70
2021/08/19 09:18:45;;;;;;;9.02;3.85;;;;;;;19.39;64.92;101179.84;5036177;28;20527;-69
2021/08/19 09:21:20;;;;;;;8.48;3.17;;;;;;;19.53;62.78;101178.22;5036178;28;20053;-68
2021/08/19 09:24:14;;;;;;;5.95;3.40;;;;;;;19.49;62.63;101180.09;5036470;28;20125;-69
2021/08/19 09:26:42;;;;;;;8.63;3.80;;;;;;;19.53;63.00;101177.41;5035191;28;20393;-70
2021/08/19 09:29:30;;;;;;;6.97;3.70;;;;;;;19.31;63.77;101178.06;5036006;28;20519;-71
2021/08/19 09:32:17;;;;;;;13.05;3.58;;;;;;;19.44;63.50;101176.81;5036024;28;20677;-69
2021/08/19 09:34:47;;;;;;;7.35;3.88;;;;;;;19.43;64.40;101183.53;5037221;28;20113;-71
2021/08/19 09:37:16;;;;;;;6.63;3.60;;;;;;;19.43;64.17;101184.38;5037492;28;20053;-68
2021/08/19 09:39:49;;;;;;;8.55;3.55;;;;;;;19.24;64.32;101183.44;5037172;28;20129;-70
2021/08/19 09:42:16;;;;;;;6.00;3.55;;;;;;;18.85;65.58;101185.19;5034969;28;20060;-69
2021/08/19 09:44:47;;;;;;;7.90;3.50;;;;;;;18.65;66.53;101181.47;5034869;28;20046;-69
2021/08/19 09:47:34;;;;;;;6.93;3.72;;;;;;;18.73;67.01;101182.47;5034746;28;20064;-70
2021/08/19 09:50:15;;;;;;;9.63;3.80;;;;;;;18.88;66.89;101170.53;5035557;28;20053;-70
2021/08/19 09:52:44;;;;;;;6.88;3.35;;;;;;;19.05;66.02;101179.38;5035864;28;20057;-71
2021/08/19 09:55:31;;;;;;;10.88;3.95;;;;;;;19.22;65.45;101178.19;5034276;28;20069;-70
2021/08/19 09:57:59;;;;;;;8.18;3.75;;;;;;;19.52;64.23;101179.41;5035556;28;20420;-70
2021/08/19 10:00:41;;;;;;;11.98;3.38;;;;;;;19.75;63.12;101165.56;5035037;28;20385;-69
2021/08/19 10:03:14;;;;;;;9.02;3.28;;;;;;;19.52;63.99;101170.19;5034423;28;20359;-70
2021/08/19 10:05:42;;;;;;;8.10;4.20;;;;;;;19.35;64.50;101168.59;5036038;28;20064;-70
2021/08/19 10:08:10;;;;;;;5.13;3.15;;;;;;;19.06;65.20;101166.22;5035737;28;20053;-69
2021/08/19 10:10:38;;;;;;;9.20;3.30;;;;;;;18.97;66.02;101173.94;5035532;28;20054;-70
2021/08/19 10:13:06;;;;;;;11.23;3.83;;;;;;;19.10;65.60;101169.91;5041181;28;20063;-70
2021/08/19 10:15:35;;;;;;;12.50;4.60;;;;;;;19.56;63.83;101169.09;5055181;28;20048;-71
2021/08/19 10:18:05;;;;;;;11.10;3.60;;;;;;;19.51;63.38;101163.78;5055380;28;20053;-70
2021/08/19 10:20:39;;;;;;;10.43;4.53;;;;;;;19.36;63.85;101164.63;5054758;28;20061;-70
2021/08/19 10:23:07;;;;;;;8.95;3.85;;;;;;;19.26;63.61;101169.91;5053455;28;20288;-69
2021/08/19 10:25:34;;;;;;;9.65;3.75;;;;;;;19.18;64.35;101168.13;5053758;28;20041;-69
2021/08/19 10:28:11;;;;;;;6.60;3.00;;;;;;;19.16;64.57;101170.47;5055043;28;20044;-69
2021/08/19 10:30:55;;;;;;;10.65;3.38;;;;;;;19.30;64.31;101166.06;5054485;28;20045;-69
2021/08/19 10:33:37;;;;;;;7.40;3.40;;;;;;;19.34;64.31;101168.94;5054847;28;20048;-69
2021/08/19 10:36:28;;;;;;;8.23;4.45;;;;;;;19.72;62.78;101169.06;5053266;28;20056;-70
2021/08/19 10:39:23;;;;;;;6.65;3.85;;;;;;;19.62;63.30;101158.47;5048292;28;20064;-70
2021/08/19 10:41:54;;;;;;;6.30;3.90;;;;;;;19.87;63.19;101154.25;5054760;28;20052;-69
2021/08/19 10:44:34;;;;;;;8.85;4.50;;;;;;;20.11;62.16;101162.38;5054628;28;20049;-69
2021/08/19 10:47:03;;;;;;;7.10;3.72;;;;;;;20.09;61.17;101159.97;5054755;28;20045;-69
2021/08/19 10:49:30;;;;;;;10.07;4.85;;;;;;;19.86;61.23;101170.22;5055129;28;20052;-70
2021/08/19 10:52:06;;;;;;;12.20;5.32;;;;;;;19.82;61.89;101169.31;5054790;28;20057;-63
2021/08/19 10:54:40;;;;;;;7.43;3.85;;;;;;;20.01;61.54;101168.56;5052691;28;20056;-64
2021/08/19 10:57:27;;;;;;;12.80;3.30;;;;;;;19.97;60.89;101168.47;5054293;28;20057;-62
2021/08/19 11:00:06;;;;;;;7.20;3.33;;;;;;;19.81;61.71;101164.91;5053849;28;20060;-62
2021/08/19 11:02:36;;;;;;;7.68;3.25;;;;;;;19.75;62.09;101166.34;5054339;28;20072;-63
2021/08/19 11:05:05;;;;;;;12.73;3.33;;;;;;;19.94;62.49;101163.63;5054031;28;20123;-63
2021/08/19 11:07:52;;;;;;;9.25;3.70;;;;;;;19.89;62.20;101169.47;5054239;28;20045;-63
2021/08/19 11:10:28;;;;;;;8.48;3.00;;;;;;;19.93;61.91;101167.59;5053843;28;20044;-63
2021/08/19 11:13:10;;;;;;;5.28;3.08;;;;;;;20.40;60.54;101163.84;5047969;28;20054;-63
2021/08/19 11:15:55;;;;;;;6.25;3.20;;;;;;;20.57;59.96;101163.38;5032812;28;20049;-63
2021/08/19 11:18:30;;;;;;;8.52;3.50;;;;;;;20.00;59.58;101161.31;5034169;28;20041;-63
2021/08/19 11:20:57;;;;;;;8.38;3.58;;;;;;;19.92;60.58;101153.97;5033783;28;20060;-62
2021/08/19 11:23:29;;;;;;;10.73;3.75;;;;;;;19.87;60.71;101162.66;5034157;28;20072;-62
2021/08/19 11:26:01;;;;;;;6.35;3.15;;;;;;;19.95;61.16;101164.41;5034225;28;20049;-70
2021/08/19 11:28:47;;;;;;;8.90;3.83;;;;;;;20.06;60.52;101160.69;5034030;28;20060;-62
2021/08/19 11:31:14;;;;;;;6.55;3.70;;;;;;;20.24;60.56;101155.53;5032170;28;20057;-62
2021/08/19 11:33:43;;;;;;;7.82;3.75;;;;;;;20.32;60.21;101150.84;5033512;28;20424;-63
2021/08/19 11:36:14;;;;;;;7.75;3.25;;;;;;;20.45;60.01;101158.72;5033745;28;20056;-65